createdAt,value
2023-04-22T00:01:12.903Z,10.20
2023-04-22T00:03:42.256Z,10.20
2023-04-22T00:06:11.123Z,10.20
2023-04-22T00:08:37.964Z,10.20
2023-04-22T00:11:04.772Z,10.20
2023-04-22T00:13:31.513Z,10.10
2023-04-22T00:15:58.309Z,10.10
2023-04-22T00:18:24.998Z,10.10
2023-04-22T00:20:51.903Z,10.00
2023-04-22T00:23:19.138Z,10.00
2023-04-22T00:25:46.127Z,10.00
2023-04-22T00:28:13.000Z,9.90
2023-04-22T00:30:39.738Z,9.90
2023-04-22T00:33:06.469Z,9.90
2023-04-22T00:35:33.231Z,9.90
2023-04-22T00:37:59.920Z,9.90
2023-04-22T00:40:26.934Z,9.90
2023-04-22T00:42:54.835Z,10.00
2023-04-22T00:45:22.010Z,9.90
2023-04-22T00:47:49.234Z,9.90
2023-04-22T00:50:16.494Z,9.80
2023-04-22T00:52:43.260Z,9.90
2023-04-22T00:55:11.203Z,9.90
2023-04-22T00:57:39.442Z,9.80
2023-04-22T01:00:07.343Z,9.80
2023-04-22T01:02:34.479Z,9.80
2023-04-22T01:05:02.006Z,9.80
2023-04-22T01:07:28.956Z,9.80
2023-04-22T01:09:56.581Z,9.80
2023-04-22T01:12:23.311Z,9.80
2023-04-22T01:14:50.051Z,9.70
2023-04-22T01:17:17.236Z,9.70
2023-04-22T01:19:44.579Z,9.70
2023-04-22T01:22:13.772Z,9.70
2023-04-22T01:24:40.791Z,9.70
2023-04-22T01:27:08.333Z,9.70
2023-04-22T01:29:38.173Z,9.70
2023-04-22T01:32:05.854Z,9.70
2023-04-22T01:34:32.665Z,9.60
2023-04-22T01:36:59.518Z,9.60
2023-04-22T01:39:26.452Z,9.60
2023-04-22T01:41:53.617Z,9.60
2023-04-22T01:44:20.369Z,9.60
2023-04-22T01:46:47.063Z,9.60
2023-04-22T01:49:13.747Z,9.50
2023-04-22T01:51:40.649Z,9.50
2023-04-22T01:54:07.753Z,9.60
2023-04-22T01:56:35.308Z,9.60
2023-04-22T01:59:02.022Z,9.60
2023-04-22T02:01:28.716Z,9.60
2023-04-22T02:03:55.529Z,9.60
2023-04-22T02:06:22.287Z,9.60
2023-04-22T02:08:49.025Z,9.60
2023-04-22T02:11:15.990Z,9.50
2023-04-22T02:13:42.723Z,9.50
2023-04-22T02:16:09.612Z,9.50
2023-04-22T02:18:36.593Z,9.50
2023-04-22T02:21:03.344Z,9.50
2023-04-22T02:23:30.247Z,9.50
2023-04-22T02:25:57.127Z,9.40
2023-04-22T02:28:23.944Z,9.50
2023-04-22T02:30:50.615Z,9.40
2023-04-22T02:33:17.337Z,9.40
2023-04-22T02:35:44.045Z,9.40
2023-04-22T02:38:11.279Z,9.30
2023-04-22T02:40:38.000Z,9.30
2023-04-22T02:43:04.699Z,9.30
2023-04-22T02:45:31.597Z,9.30
2023-04-22T02:47:58.379Z,9.30
2023-04-22T02:50:25.099Z,9.30
2023-04-22T02:52:52.092Z,9.30
2023-04-22T02:55:18.893Z,9.30
2023-04-22T02:57:46.008Z,9.20
2023-04-22T03:00:13.524Z,9.20
2023-04-22T03:02:40.383Z,9.10
2023-04-22T03:05:07.642Z,9.10
2023-04-22T03:07:34.315Z,9.10
2023-04-22T03:10:01.019Z,9.10
2023-04-22T03:12:27.694Z,9.10
2023-04-22T03:14:54.335Z,9.10
2023-04-22T03:17:21.036Z,9.10
2023-04-22T03:19:47.815Z,9.00
2023-04-22T03:22:14.483Z,9.00
2023-04-22T03:24:41.217Z,8.90
2023-04-22T03:27:08.112Z,8.80
2023-04-22T03:29:34.807Z,8.80
2023-04-22T03:32:02.677Z,8.70
2023-04-22T03:34:29.376Z,8.70
2023-04-22T03:36:56.060Z,8.70
2023-04-22T03:39:22.741Z,8.70
2023-04-22T03:41:49.381Z,8.70
2023-04-22T03:44:16.110Z,8.70
2023-04-22T03:46:42.808Z,8.70
2023-04-22T03:49:10.047Z,8.60
2023-04-22T03:51:37.284Z,8.60
2023-04-22T03:54:04.044Z,8.60
2023-04-22T03:56:30.725Z,8.60
2023-04-22T03:58:57.384Z,8.50
2023-04-22T04:01:24.052Z,8.40
2023-04-22T04:03:50.859Z,8.50
2023-04-22T04:06:17.695Z,8.50
2023-04-22T04:08:44.404Z,8.40
2023-04-22T04:11:11.805Z,8.30
2023-04-22T04:13:38.519Z,8.30
2023-04-22T04:16:05.715Z,8.30
2023-04-22T04:18:32.692Z,8.20
2023-04-22T04:20:59.425Z,8.20
2023-04-22T04:23:27.167Z,8.20
2023-04-22T04:25:55.612Z,8.10
2023-04-22T04:28:22.454Z,8.20
2023-04-22T04:30:49.188Z,8.10
2023-04-22T04:33:16.760Z,8.10
2023-04-22T04:35:44.825Z,8.10
2023-04-22T04:38:12.797Z,8.10
2023-04-22T04:40:39.505Z,8.10
2023-04-22T04:43:08.587Z,8.10
2023-04-22T04:45:38.807Z,8.00
2023-04-22T04:48:08.984Z,8.10
2023-04-22T04:50:35.754Z,8.10
2023-04-22T04:53:02.752Z,8.10
2023-04-22T04:55:29.555Z,8.10
2023-04-22T04:57:56.384Z,8.10
2023-04-22T05:00:23.087Z,8.10
2023-04-22T05:02:49.896Z,8.10
2023-04-22T05:05:16.774Z,8.10
2023-04-22T05:07:43.557Z,8.10
2023-04-22T05:10:11.354Z,8.20
2023-04-22T05:12:38.059Z,8.20
2023-04-22T05:15:05.492Z,8.30
2023-04-22T05:17:32.216Z,8.30
2023-04-22T05:19:58.891Z,8.20
2023-04-22T05:22:25.669Z,8.40
2023-04-22T05:24:52.340Z,8.40
2023-04-22T05:27:19.097Z,8.50
2023-04-22T05:29:45.798Z,8.60
2023-04-22T05:32:12.562Z,8.60
2023-04-22T05:34:39.212Z,8.70
2023-04-22T05:37:05.902Z,8.70
2023-04-22T05:39:32.783Z,8.80
2023-04-22T05:41:59.474Z,8.80
2023-04-22T05:44:26.174Z,8.90
2023-04-22T05:46:52.839Z,8.80
2023-04-22T05:49:19.543Z,8.80
2023-04-22T05:51:46.487Z,8.90
2023-04-22T05:54:13.165Z,8.90
2023-04-22T05:56:40.295Z,9.00
2023-04-22T05:59:07.003Z,9.10
2023-04-22T06:01:33.675Z,9.20
2023-04-22T06:04:00.650Z,9.30
2023-04-22T06:06:28.337Z,9.40
2023-04-22T06:08:55.062Z,9.50
2023-04-22T06:11:22.098Z,9.50
2023-04-22T06:13:48.910Z,9.60
2023-04-22T06:16:15.752Z,9.70
2023-04-22T06:18:43.693Z,9.90
2023-04-22T06:21:10.640Z,10.00
2023-04-22T06:23:37.359Z,10.00
2023-04-22T06:26:04.491Z,10.20
2023-04-22T06:28:31.172Z,10.20
2023-04-22T06:30:57.902Z,10.30
2023-04-22T06:33:24.581Z,10.30
2023-04-22T06:35:51.459Z,10.40
2023-04-22T06:38:18.263Z,10.40
2023-04-22T06:40:44.992Z,10.40
2023-04-22T06:43:11.812Z,10.50
2023-04-22T06:45:38.484Z,10.60
2023-04-22T06:48:05.222Z,10.80
2023-04-22T06:50:31.993Z,10.80
2023-04-22T06:52:58.731Z,11.00
2023-04-22T06:55:25.557Z,11.10
2023-04-22T06:57:52.368Z,11.20
2023-04-22T07:00:19.165Z,11.30
2023-04-22T07:02:45.887Z,11.40
2023-04-22T07:05:12.933Z,11.50
2023-04-22T07:07:39.745Z,11.60
2023-04-22T07:10:06.764Z,11.80
2023-04-22T07:12:33.466Z,11.80
2023-04-22T07:15:00.217Z,11.90
2023-04-22T07:17:26.955Z,12.00
2023-04-22T07:19:53.799Z,12.30
2023-04-22T07:22:20.881Z,12.50
2023-04-22T07:24:47.749Z,12.60
2023-04-22T07:27:14.541Z,12.50
2023-04-22T07:29:41.615Z,12.50
2023-04-22T07:32:08.915Z,12.70
2023-04-22T07:34:35.633Z,12.40
2023-04-22T07:37:02.360Z,12.30
2023-04-22T07:39:29.143Z,12.80
2023-04-22T07:41:57.707Z,12.90
2023-04-22T07:44:24.580Z,13.00
2023-04-22T07:46:51.389Z,13.20
2023-04-22T07:49:18.396Z,13.30
2023-04-22T07:51:45.220Z,13.30
2023-04-22T07:54:12.395Z,13.30
2023-04-22T07:56:39.273Z,13.40
2023-04-22T07:59:06.265Z,14.10
2023-04-22T08:01:32.949Z,13.70
2023-04-22T08:04:00.030Z,13.70
2023-04-22T08:06:28.168Z,13.80
2023-04-22T08:08:54.981Z,14.00
2023-04-22T08:11:21.967Z,14.20
2023-04-22T08:13:48.686Z,14.40
2023-04-22T08:16:15.588Z,14.60
2023-04-22T08:18:42.389Z,14.70
2023-04-22T08:21:09.277Z,14.50
2023-04-22T08:23:36.127Z,14.50
2023-04-22T08:26:04.327Z,14.40
2023-04-22T08:28:31.041Z,14.30
2023-04-22T08:30:57.736Z,14.20
2023-04-22T08:33:26.647Z,14.20
2023-04-22T08:35:54.052Z,14.20
2023-04-22T08:38:21.126Z,14.20
2023-04-22T08:40:48.418Z,14.20
2023-04-22T08:43:15.303Z,14.40
2023-04-22T08:45:42.462Z,14.40
2023-04-22T08:48:09.925Z,14.50
2023-04-22T08:50:39.567Z,14.60
2023-04-22T08:53:06.652Z,14.70
2023-04-22T08:55:35.359Z,14.90
2023-04-22T08:58:04.385Z,15.10
2023-04-22T09:00:34.308Z,15.30
2023-04-22T09:03:06.158Z,15.40
2023-04-22T09:05:34.141Z,15.50
2023-04-22T09:08:02.203Z,15.70
2023-04-22T09:10:31.401Z,15.80
2023-04-22T09:13:00.148Z,16.10
2023-04-22T09:15:27.803Z,16.20
2023-04-22T09:17:54.595Z,16.20
2023-04-22T09:20:27.801Z,16.40
2023-04-22T09:22:56.757Z,16.40
2023-04-22T09:25:26.224Z,16.50
2023-04-22T09:27:54.582Z,16.60
2023-04-22T09:30:32.874Z,17.00
2023-04-22T09:33:02.709Z,16.70
2023-04-22T09:35:33.185Z,16.50
2023-04-22T09:38:02.054Z,16.50
2023-04-22T09:40:29.975Z,16.80
2023-04-22T09:43:01.244Z,16.80
2023-04-22T09:45:41.836Z,17.10
2023-04-22T09:48:12.596Z,16.80
2023-04-22T09:50:44.369Z,16.90
2023-04-22T09:53:14.017Z,17.00
2023-04-22T09:55:46.788Z,17.30
2023-04-22T09:58:15.556Z,17.10
2023-04-22T10:00:44.481Z,17.20
2023-04-22T10:03:11.588Z,17.20
2023-04-22T10:05:38.626Z,17.40
2023-04-22T10:08:07.012Z,17.60
2023-04-22T10:10:33.988Z,17.60
2023-04-22T10:13:01.806Z,17.60
2023-04-22T10:15:40.269Z,17.60
2023-04-22T10:18:11.050Z,17.60
2023-04-22T10:20:40.583Z,17.60
2023-04-22T10:23:19.173Z,17.60
2023-04-22T10:25:53.019Z,17.60
2023-04-22T10:28:22.037Z,17.50
2023-04-22T10:30:49.297Z,17.80
2023-04-22T10:33:23.753Z,18.10
2023-04-22T10:36:09.187Z,18.00
2023-04-22T10:38:40.642Z,18.20
2023-04-22T10:41:07.758Z,18.40
2023-04-22T10:44:01.849Z,18.40
2023-04-22T10:46:38.047Z,18.50
2023-04-22T10:49:13.058Z,18.50
2023-04-22T10:51:51.506Z,19.00
2023-04-22T10:54:32.494Z,19.30
2023-04-22T10:57:19.142Z,19.10
2023-04-22T10:59:53.224Z,19.10
2023-04-22T11:02:21.325Z,19.20
2023-04-22T11:04:48.723Z,19.60
2023-04-22T11:07:18.271Z,19.60
2023-04-22T11:10:21.212Z,19.60
2023-04-22T11:12:50.010Z,19.40
2023-04-22T11:15:22.320Z,19.40
2023-04-22T11:17:54.277Z,19.60
2023-04-22T11:20:21.802Z,19.60
2023-04-22T11:22:57.450Z,19.70
2023-04-22T11:25:25.909Z,20.00
2023-04-22T11:27:53.729Z,20.10
2023-04-22T11:30:23.620Z,19.80
2023-04-22T11:32:53.272Z,19.90
2023-04-22T11:35:25.508Z,20.00
2023-04-22T11:38:01.590Z,20.20
2023-04-22T11:40:35.818Z,20.40
2023-04-22T11:43:07.430Z,20.10
2023-04-22T11:45:35.820Z,20.30
2023-04-22T11:48:04.922Z,20.40
2023-04-22T11:50:34.007Z,20.40
2023-04-22T11:53:16.777Z,20.60
2023-04-22T11:55:44.787Z,20.50
2023-04-22T11:58:17.190Z,21.00
2023-04-22T12:00:48.934Z,21.10
2023-04-22T12:03:20.278Z,21.20
2023-04-22T12:05:52.427Z,21.00
2023-04-22T12:08:21.658Z,21.30
2023-04-22T12:10:55.227Z,21.50
2023-04-22T12:13:34.772Z,21.30
2023-04-22T12:16:04.461Z,21.30
2023-04-22T12:18:32.985Z,21.30
2023-04-22T12:21:10.270Z,21.30
2023-04-22T12:23:59.101Z,21.50
2023-04-22T12:26:27.752Z,21.10
2023-04-22T12:28:56.721Z,20.80
2023-04-22T12:31:23.644Z,20.90
2023-04-22T12:33:50.889Z,21.20
2023-04-22T12:36:20.803Z,21.40
2023-04-22T12:38:47.934Z,21.60
2023-04-22T12:41:15.832Z,21.90
2023-04-22T12:43:42.606Z,22.10
2023-04-22T12:46:10.145Z,21.90
2023-04-22T12:48:37.604Z,21.90
2023-04-22T12:51:05.766Z,21.70
2023-04-22T12:53:32.472Z,22.10
2023-04-22T12:55:59.285Z,22.40
2023-04-22T12:58:26.489Z,22.40
2023-04-22T13:00:53.363Z,22.20
2023-04-22T13:03:20.238Z,22.40
2023-04-22T13:05:47.122Z,22.30
2023-04-22T13:08:13.822Z,22.50
2023-04-22T13:10:40.832Z,22.30
2023-04-22T13:15:38.875Z,22.90
2023-04-22T13:18:06.131Z,23.10
2023-04-22T13:20:32.946Z,23.00
2023-04-22T13:22:59.647Z,22.80
2023-04-22T13:25:26.328Z,22.90
2023-04-22T13:27:53.068Z,22.90
2023-04-22T13:30:20.134Z,23.00
2023-04-22T13:32:46.965Z,23.20
2023-04-22T13:35:13.749Z,23.60
2023-04-22T13:37:40.532Z,25.00
2023-04-22T13:40:08.431Z,26.00
2023-04-22T13:42:35.473Z,26.60
2023-04-22T13:45:02.173Z,26.90
2023-04-22T13:47:28.923Z,27.70
2023-04-22T13:49:55.687Z,27.80
2023-04-22T13:52:22.421Z,28.60
2023-04-22T13:54:49.125Z,29.50
2023-04-22T13:57:15.789Z,30.20
2023-04-22T13:59:42.628Z,30.20
2023-04-22T14:02:09.588Z,29.50
2023-04-22T14:04:36.387Z,28.90
2023-04-22T14:07:04.196Z,28.10
2023-04-22T14:09:31.345Z,27.90
2023-04-22T14:11:58.385Z,27.30
2023-04-22T14:14:25.282Z,26.30
2023-04-22T14:16:52.312Z,25.00
2023-04-22T14:19:19.534Z,24.00
2023-04-22T14:21:46.280Z,23.30
2023-04-22T14:24:13.155Z,22.60
2023-04-22T14:26:40.104Z,22.10
2023-04-22T14:29:06.863Z,21.80
2023-04-22T14:31:34.245Z,21.30
2023-04-22T14:34:01.208Z,21.40
2023-04-22T14:36:28.014Z,21.40
2023-04-22T14:38:54.779Z,21.30
2023-04-22T14:41:21.687Z,21.10
2023-04-22T14:43:48.489Z,21.00
2023-04-22T14:46:15.274Z,21.10
2023-04-22T14:48:41.974Z,21.40
2023-04-22T14:51:08.716Z,21.70
2023-04-22T14:53:35.657Z,21.60
2023-04-22T14:56:02.394Z,21.70
2023-04-22T14:58:31.763Z,21.80
2023-04-22T15:00:59.852Z,21.90
2023-04-22T15:03:27.261Z,21.90
2023-04-22T15:05:55.664Z,22.40
2023-04-22T15:08:25.184Z,23.10
2023-04-22T15:10:51.965Z,23.80
2023-04-22T15:13:19.685Z,24.00
2023-04-22T15:15:47.016Z,23.70
2023-04-22T15:18:13.932Z,23.10
2023-04-22T15:20:41.710Z,22.40
2023-04-22T15:23:08.406Z,21.70
2023-04-22T15:25:35.783Z,21.40
2023-04-22T15:28:03.009Z,21.00
2023-04-22T15:30:29.973Z,20.70
2023-04-22T15:32:56.756Z,20.60
2023-04-22T15:35:24.402Z,20.60
2023-04-22T15:37:51.098Z,20.40
2023-04-22T15:40:17.834Z,20.20
2023-04-22T15:42:44.730Z,20.00
2023-04-22T15:45:11.825Z,19.90
2023-04-22T15:47:40.677Z,19.70
2023-04-22T15:50:09.732Z,19.60
2023-04-22T15:52:37.840Z,19.40
2023-04-22T15:55:08.273Z,19.20
2023-04-22T15:57:35.635Z,19.10
2023-04-22T16:00:12.435Z,19.00
2023-04-22T16:02:41.229Z,18.90
2023-04-22T16:05:08.509Z,18.90
2023-04-22T16:07:35.498Z,18.80
2023-04-22T16:10:02.499Z,18.80
2023-04-22T16:12:29.862Z,18.90
2023-04-22T16:14:57.709Z,18.80
2023-04-22T16:17:25.093Z,18.80
2023-04-22T16:19:51.929Z,18.70
2023-04-22T16:22:18.719Z,18.70
2023-04-22T16:24:45.645Z,18.60
2023-04-22T16:27:16.424Z,18.50
2023-04-22T16:29:43.774Z,18.50
2023-04-22T16:32:11.308Z,18.40
2023-04-22T16:34:38.354Z,18.40
2023-04-22T16:37:05.803Z,18.10
2023-04-22T16:39:32.847Z,18.20
2023-04-22T16:41:59.857Z,18.10
2023-04-22T16:44:26.603Z,18.00
2023-04-22T16:46:53.312Z,17.90
2023-04-22T16:49:20.199Z,17.80
2023-04-22T16:51:47.022Z,17.80
2023-04-22T16:54:13.776Z,17.80
2023-04-22T16:56:41.499Z,17.70
2023-04-22T16:59:08.268Z,17.80
2023-04-22T17:01:35.040Z,17.90
2023-04-22T17:04:02.053Z,17.70
2023-04-22T17:06:28.993Z,17.60
2023-04-22T17:08:55.690Z,17.50
2023-04-22T17:11:23.967Z,17.40
2023-04-22T17:13:51.493Z,17.20
2023-04-22T17:16:18.536Z,17.00
2023-04-22T17:18:47.050Z,16.90
2023-04-22T17:21:13.930Z,16.90
2023-04-22T17:23:40.695Z,16.90
2023-04-22T17:26:07.413Z,16.90
2023-04-22T17:28:34.471Z,17.10
2023-04-22T17:31:01.270Z,16.80
2023-04-22T17:33:29.134Z,16.80
2023-04-22T17:35:57.106Z,16.70
2023-04-22T17:38:23.798Z,16.60
2023-04-22T17:40:50.500Z,16.60
2023-04-22T17:43:17.215Z,16.50
2023-04-22T17:45:44.135Z,16.50
2023-04-22T17:48:11.280Z,16.40
2023-04-22T17:50:38.011Z,16.50
2023-04-22T17:53:04.770Z,16.40
2023-04-22T17:55:34.996Z,16.40
2023-04-22T17:58:05.601Z,16.30
2023-04-22T18:00:33.719Z,16.30
2023-04-22T18:03:00.836Z,16.20
2023-04-22T18:05:27.933Z,16.10
2023-04-22T18:08:04.367Z,16.10
2023-04-22T18:10:31.211Z,16.10
2023-04-22T18:12:57.897Z,16.00
2023-04-22T18:15:24.665Z,15.90
2023-04-22T18:17:51.878Z,15.90
2023-04-22T18:20:19.835Z,15.90
2023-04-22T18:22:48.851Z,15.80
2023-04-22T18:25:16.539Z,15.90
2023-04-22T18:27:43.683Z,15.80
2023-04-22T18:30:10.888Z,15.80
2023-04-22T18:32:38.041Z,15.80
2023-04-22T18:35:05.231Z,15.70
2023-04-22T18:37:34.581Z,15.70
2023-04-22T18:40:01.864Z,15.80
2023-04-22T18:42:29.031Z,15.70
2023-04-22T18:44:55.724Z,15.60
2023-04-22T18:47:22.433Z,15.60
2023-04-22T18:49:49.395Z,15.50
2023-04-22T18:52:17.147Z,15.50
2023-04-22T18:54:44.228Z,15.50
2023-04-22T18:57:11.157Z,15.40
2023-04-22T18:59:37.869Z,15.40
2023-04-22T19:02:05.201Z,15.40
2023-04-22T19:04:31.999Z,15.30
2023-04-22T19:06:59.325Z,15.30
2023-04-22T19:09:26.105Z,15.30
2023-04-22T19:11:53.119Z,15.30
2023-04-22T19:14:19.981Z,15.10
2023-04-22T19:16:46.783Z,15.10
2023-04-22T19:19:14.000Z,15.10
2023-04-22T19:21:41.112Z,15.10
2023-04-22T19:24:08.223Z,15.10
2023-04-22T19:26:35.194Z,15.20
2023-04-22T19:29:02.176Z,15.30
2023-04-22T19:31:29.458Z,15.10
2023-04-22T19:33:56.294Z,14.90
2023-04-22T19:36:23.135Z,15.10
2023-04-22T19:38:49.872Z,15.00
2023-04-22T19:41:16.631Z,15.10
2023-04-22T19:43:43.440Z,15.20
2023-04-22T19:46:10.336Z,15.10
2023-04-22T19:48:37.401Z,15.00
2023-04-22T19:51:05.582Z,14.90
2023-04-22T19:53:33.104Z,14.90
2023-04-22T19:55:59.967Z,14.80
2023-04-22T19:58:28.480Z,14.90
2023-04-22T20:00:55.923Z,14.80
2023-04-22T20:03:23.081Z,14.80
2023-04-22T20:05:50.892Z,14.80
2023-04-22T20:08:19.797Z,14.80
2023-04-22T20:10:49.595Z,14.80
2023-04-22T20:13:17.363Z,14.80
2023-04-22T20:15:44.488Z,14.80
2023-04-22T20:18:12.112Z,14.70
2023-04-22T20:20:40.662Z,14.70
2023-04-22T20:23:10.583Z,14.70
2023-04-22T20:25:44.098Z,14.60
2023-04-22T20:28:11.291Z,14.60
2023-04-22T20:30:38.387Z,14.60
2023-04-22T20:33:05.450Z,14.60
2023-04-22T20:35:32.416Z,14.50
2023-04-22T20:38:00.526Z,14.50
2023-04-22T20:40:28.840Z,14.40
2023-04-22T20:42:57.897Z,14.40
2023-04-22T20:45:24.928Z,14.40
2023-04-22T20:47:52.946Z,14.50
2023-04-22T20:50:20.830Z,14.40
2023-04-22T20:52:49.064Z,14.30
2023-04-22T20:55:17.238Z,14.10
2023-04-22T20:57:44.033Z,14.20
2023-04-22T21:00:11.604Z,14.10
2023-04-22T21:02:39.398Z,14.20
2023-04-22T21:05:06.713Z,14.10
2023-04-22T21:07:35.113Z,14.20
2023-04-22T21:10:02.119Z,14.20
2023-04-22T21:12:29.368Z,14.20
2023-04-22T21:14:56.422Z,14.10
2023-04-22T21:17:29.142Z,14.10
2023-04-22T21:19:58.079Z,14.00
2023-04-22T21:22:25.615Z,14.00
2023-04-22T21:24:52.838Z,14.00
2023-04-22T21:27:21.648Z,14.00
2023-04-22T21:29:49.387Z,14.00
2023-04-22T21:32:16.741Z,14.00
2023-04-22T21:34:44.415Z,13.90
2023-04-22T21:37:11.886Z,13.90
2023-04-22T21:39:39.580Z,13.90
2023-04-22T21:42:08.596Z,13.90
2023-04-22T21:44:37.126Z,13.80
2023-04-22T21:47:04.772Z,13.70
2023-04-22T21:49:31.623Z,13.70
2023-04-22T21:51:59.017Z,13.70
2023-04-22T21:54:25.887Z,13.70
2023-04-22T21:56:52.748Z,13.60
2023-04-22T21:59:19.542Z,13.50
2023-04-22T22:01:46.383Z,13.50
2023-04-22T22:04:15.751Z,13.50
2023-04-22T22:06:43.536Z,13.50
2023-04-22T22:09:11.602Z,13.50
2023-04-22T22:11:38.353Z,13.50
2023-04-22T22:14:05.214Z,13.50
2023-04-22T22:16:32.161Z,13.50
2023-04-22T22:18:58.900Z,13.50
2023-04-22T22:21:25.583Z,13.50
2023-04-22T22:23:52.427Z,13.50
2023-04-22T22:26:19.558Z,13.50
2023-04-22T22:28:46.367Z,13.50
2023-04-22T22:31:13.090Z,13.50
2023-04-22T22:33:39.859Z,13.50
2023-04-22T22:36:06.793Z,13.50
2023-04-22T22:38:33.444Z,13.40
2023-04-22T22:41:00.154Z,13.40
2023-04-22T22:43:26.954Z,13.50
2023-04-22T22:45:53.876Z,13.50
2023-04-22T22:48:21.076Z,13.40
2023-04-22T22:50:49.077Z,13.40
2023-04-22T22:53:15.987Z,13.40
2023-04-22T22:55:42.660Z,13.40
2023-04-22T22:58:09.332Z,13.60
2023-04-22T23:00:37.276Z,13.30
2023-04-22T23:03:04.473Z,13.40
2023-04-22T23:05:31.886Z,13.20
2023-04-22T23:07:58.584Z,13.10
2023-04-22T23:10:25.379Z,13.10
2023-04-22T23:12:52.126Z,13.20
2023-04-22T23:15:18.886Z,13.20
2023-04-22T23:17:45.928Z,13.20
2023-04-22T23:20:13.043Z,13.20
2023-04-22T23:22:40.596Z,13.20
2023-04-22T23:25:08.634Z,13.10
2023-04-22T23:27:35.967Z,13.10
2023-04-22T23:30:04.515Z,13.10
2023-04-22T23:32:33.093Z,13.00
2023-04-22T23:35:01.922Z,13.00
2023-04-22T23:37:29.520Z,12.90
2023-04-22T23:39:56.264Z,12.90
2023-04-22T23:42:22.950Z,12.90
2023-04-22T23:44:49.794Z,12.90
2023-04-22T23:47:16.957Z,12.90
2023-04-22T23:49:43.977Z,12.90
2023-04-22T23:52:13.000Z,12.90
2023-04-22T23:54:41.434Z,12.90
2023-04-22T23:57:08.938Z,12.90
2023-04-22T23:59:35.994Z,12.90
